Time;durP1;ratioP1;P1;durP2;ratioP2;P2;SDS_P1;SDS_P2;PMS_P1;PMS_P2;Temp;Humidity;BMP_temperature;BMP_pressure;BME280_temperature;BME280_humidity;BME280_pressure;Samples;Min_cycle;Max_cycle;Signal;HPM_P1;HPM_P2
2022/03/06 00:00:19;;;;;;;;;;;;;;;;;;4997699;28;19936;-58
2022/03/06 00:02:44;;;;;;;;;;;;;;;;;;4997457;28;19933;-58
2022/03/06 00:05:10;;;;;;;;;;;;;;;;;;4997126;28;20266;-58
2022/03/06 00:07:35;;;;;;;;;;;;;;;;;;5004532;28;19912;-58
2022/03/06 00:10:00;;;;;;;;;;;;;;;;;;5017394;28;19913;-58
2022/03/06 00:12:26;;;;;;;;;;;;;;;;;;5017011;28;19920;-58
2022/03/06 00:14:51;;;;;;;;;;;;;;;;;;5016577;28;19940;-58
2022/03/06 00:17:16;;;;;;;;;;;;;;;;;;4997376;28;20294;-59
2022/03/06 00:19:41;;;;;;;;;;;;;;;;;;5016465;28;19916;-58
2022/03/06 00:22:06;;;;;;;;;;;;;;;;;;5016443;28;19941;-58
2022/03/06 00:24:32;;;;;;;;;;;;;;;;;;5016900;28;19910;-58
2022/03/06 00:26:57;;;;;;;;;;;;;;;;;;5016908;28;19917;-58
2022/03/06 00:29:22;;;;;;;;;;;;;;;;;;5015964;28;19921;-59
2022/03/06 00:31:48;;;;;;;;;;;;;;;;;;5016542;28;19909;-58
2022/03/06 00:34:13;;;;;;;;;;;;;;;;;;4999164;28;19917;-58
2022/03/06 00:36:38;;;;;;;;;;;;;;;;;;4998515;28;19913;-58
2022/03/06 00:39:04;;;;;;;;;;;;;;;;;;5016329;28;19909;-59
2022/03/06 00:41:30;;;;;;;;;;;;;;;;;;5015990;28;20004;-58
2022/03/06 00:43:55;;;;;;;;;;;;;;;;;;5016002;28;19916;-59
2022/03/06 00:46:20;;;;;;;;;;;;;;;;;;5016236;28;19909;-58
2022/03/06 00:48:45;;;;;;;;;;;;;;;;;;5016195;28;20354;-58
2022/03/06 00:51:11;;;;;;;;;;;;;;;;;;5013913;28;20352;-58
2022/03/06 00:53:36;;;;;;;;;;;;;;;;;;4982842;28;20343;-58
2022/03/06 00:56:02;;;;;;;;;;;;;;;;;;4998445;28;19917;-59
2022/03/06 00:58:27;;;;;;;;;;;;;;;;;;5015664;28;19949;-59
2022/03/06 01:00:52;;;;;;;;;;;;;;;;;;4995845;28;20006;-59
2022/03/06 01:03:17;;;;;;;;;;;;;;;;;;5015899;28;20015;-60
2022/03/06 01:05:42;;;;;;;;;;;;;;;;;;5015586;28;20291;-59
2022/03/06 01:08:08;;;;;;;;;;;;;;;;;;5014369;28;19929;-59
2022/03/06 01:10:33;;;;;;;;;;;;;;;;;;4998209;28;19920;-57
2022/03/06 01:12:58;;;;;;;;;;;;;;;;;;5011218;28;19914;-58
2022/03/06 01:15:23;;;;;;;;;;;;;;;;;;5013809;28;19921;-58
2022/03/06 01:17:48;;;;;;;;;;;;;;;;;;5013232;28;20362;-58
2022/03/06 01:20:14;;;;;;;;;;;;;;;;;;5012928;28;20372;-58
2022/03/06 01:22:39;;;;;;;;;;;;;;;;;;5015577;28;20342;-59
2022/03/06 01:25:05;;;;;;;;;;;;;;;;;;5015503;28;19910;-60
2022/03/06 01:27:30;;;;;;;;;;;;;;;;;;5015440;28;19906;-57
2022/03/06 01:29:55;;;;;;;;;;;;;;;;;;5015492;28;19960;-60
2022/03/06 01:32:20;;;;;;;;;;;;;;;;;;5015607;28;19956;-59
2022/03/06 01:34:46;;;;;;;;;;;;;;;;;;4997817;28;19966;-59
2022/03/06 01:37:11;;;;;;;;;;;;;;;;;;5015303;28;19909;-59
2022/03/06 01:39:36;;;;;;;;;;;;;;;;;;5015280;28;19959;-59
2022/03/06 01:42:01;;;;;;;;;;;;;;;;;;4997833;28;19916;-59
2022/03/06 01:44:26;;;;;;;;;;;;;;;;;;5015186;28;19909;-59
2022/03/06 01:46:52;;;;;;;;;;;;;;;;;;5014867;28;19909;-58
2022/03/06 01:49:17;;;;;;;;;;;;;;;;;;5015081;28;19909;-59
2022/03/06 01:51:42;;;;;;;;;;;;;;;;;;5014813;28;20354;-59
2022/03/06 01:54:07;;;;;;;;;;;;;;;;;;5014975;28;19913;-58
2022/03/06 01:56:33;;;;;;;;;;;;;;;;;;5014672;28;19949;-58
2022/03/06 01:58:58;;;;;;;;;;;;;;;;;;4997186;28;19910;-58
2022/03/06 02:01:23;;;;;;;;;;;;;;;;;;4997256;28;19917;-58
2022/03/06 02:03:48;;;;;;;;;;;;;;;;;;4997458;28;20338;-59
2022/03/06 02:06:16;;;;;;;;;;;;;;;;;;4997432;28;20017;-58
2022/03/06 02:08:41;;;;;;;;;;;;;;;;;;5015031;28;19912;-60
2022/03/06 02:11:06;;;;;;;;;;;;;;;;;;5014978;28;19910;-58
2022/03/06 02:13:32;;;;;;;;;;;;;;;;;;5014270;28;20298;-59
2022/03/06 02:15:57;;;;;;;;;;;;;;;;;;5015120;28;19917;-59
2022/03/06 02:18:22;;;;;;;;;;;;;;;;;;5014350;28;20258;-59
2022/03/06 02:20:47;;;;;;;;;;;;;;;;;;5010296;28;19991;-59
2022/03/06 02:23:12;;;;;;;;;;;;;;;;;;4994736;28;20021;-58
2022/03/06 02:25:38;;;;;;;;;;;;;;;;;;4994606;28;20274;-59
2022/03/06 02:28:03;;;;;;;;;;;;;;;;;;4994848;28;20416;-59
2022/03/06 02:30:28;;;;;;;;;;;;;;;;;;4994549;28;19912;-59
2022/03/06 02:32:54;;;;;;;;;;;;;;;;;;5011515;28;19920;-58
2022/03/06 02:35:19;;;;;;;;;;;;;;;;;;5014431;28;19953;-58
2022/03/06 02:37:44;;;;;;;;;;;;;;;;;;5014650;28;19956;-58
2022/03/06 02:40:09;;;;;;;;;;;;;;;;;;5014357;28;19910;-59
2022/03/06 02:42:34;;;;;;;;;;;;;;;;;;5014606;28;19905;-59
2022/03/06 02:45:00;;;;;;;;;;;;;;;;;;5014300;28;19910;-59
2022/03/06 02:47:25;;;;;;;;;;;;;;;;;;5014521;28;19910;-59
2022/03/06 02:49:51;;;;;;;;;;;;;;;;;;5014298;28;19906;-59
2022/03/06 02:52:16;;;;;;;;;;;;;;;;;;5008649;28;19918;-59
2022/03/06 02:54:41;;;;;;;;;;;;;;;;;;5016593;28;19913;-59
2022/03/06 02:57:06;;;;;;;;;;;;;;;;;;5018325;28;20353;-59
2022/03/06 02:59:31;;;;;;;;;;;;;;;;;;5018189;28;20011;-59
2022/03/06 03:01:57;;;;;;;;;;;;;;;;;;5000582;28;20008;-59
2022/03/06 03:04:22;;;;;;;;;;;;;;;;;;5000499;28;19941;-59
2022/03/06 03:06:50;;;;;;;;;;;;;;;;;;5000522;28;19952;-58
2022/03/06 03:09:17;;;;;;;;;;;;;;;;;;5018067;28;19914;-58
2022/03/06 03:11:42;;;;;;;;;;;;;;;;;;5018021;28;19916;-58
2022/03/06 03:14:07;;;;;;;;;;;;;;;;;;5015479;28;19914;-59
2022/03/06 03:16:32;;;;;;;;;;;;;;;;;;5018416;28;19972;-59
2022/03/06 03:18:57;;;;;;;;;;;;;;;;;;5017876;28;19929;-58
2022/03/06 03:21:23;;;;;;;;;;;;;;;;;;5018127;28;19913;-58
2022/03/06 03:23:48;;;;;;;;;;;;;;;;;;5017482;28;19981;-59
2022/03/06 03:26:13;;;;;;;;;;;;;;;;;;5017484;28;20416;-60
2022/03/06 03:28:38;;;;;;;;;;;;;;;;;;5017697;28;19909;-59
2022/03/06 03:31:03;;;;;;;;;;;;;;;;;;5017407;28;19914;-58
2022/03/06 03:33:29;;;;;;;;;;;;;;;;;;5017505;28;19921;-59
2022/03/06 03:35:54;;;;;;;;;;;;;;;;;;5017609;28;19913;-58
2022/03/06 03:38:19;;;;;;;;;;;;;;;;;;5017567;28;19913;-59
2022/03/06 03:40:44;;;;;;;;;;;;;;;;;;5017495;28;19916;-60
2022/03/06 03:43:10;;;;;;;;;;;;;;;;;;5017144;28;20311;-58
2022/03/06 03:45:35;;;;;;;;;;;;;;;;;;5018011;28;19943;-59
2022/03/06 03:48:00;;;;;;;;;;;;;;;;;;5017107;28;19906;-58
2022/03/06 03:50:25;;;;;;;;;;;;;;;;;;4999802;28;20404;-59
2022/03/06 03:52:51;;;;;;;;;;;;;;;;;;4999866;28;19964;-59
2022/03/06 03:55:16;;;;;;;;;;;;;;;;;;5017014;28;19945;-58
2022/03/06 03:57:41;;;;;;;;;;;;;;;;;;4999559;28;19909;-58
2022/03/06 04:00:07;;;;;;;;;;;;;;;;;;5014730;28;19941;-59
2022/03/06 04:02:32;;;;;;;;;;;;;;;;;;5017012;28;20417;-59
2022/03/06 04:04:57;;;;;;;;;;;;;;;;;;4998516;28;19917;-58
2022/03/06 04:07:22;;;;;;;;;;;;;;;;;;5016960;28;19912;-59
2022/03/06 04:09:47;;;;;;;;;;;;;;;;;;5017246;28;19917;-57
2022/03/06 04:12:13;;;;;;;;;;;;;;;;;;5017179;28;20274;-58
2022/03/06 04:14:38;;;;;;;;;;;;;;;;;;5016230;28;20366;-59
2022/03/06 04:17:03;;;;;;;;;;;;;;;;;;5016847;28;19921;-58
2022/03/06 04:19:28;;;;;;;;;;;;;;;;;;4999553;28;19910;-59
2022/03/06 04:21:53;;;;;;;;;;;;;;;;;;5014204;28;19913;-58
2022/03/06 04:24:19;;;;;;;;;;;;;;;;;;4998990;28;19914;-58
2022/03/06 04:26:44;;;;;;;;;;;;;;;;;;5016943;28;19910;-59
2022/03/06 04:29:09;;;;;;;;;;;;;;;;;;5016643;28;20381;-59
2022/03/06 04:31:34;;;;;;;;;;;;;;;;;;5001809;28;19964;-59
2022/03/06 04:33:59;;;;;;;;;;;;;;;;;;5000894;28;19960;-59
2022/03/06 04:36:25;;;;;;;;;;;;;;;;;;5016170;28;19913;-59
2022/03/06 04:38:50;;;;;;;;;;;;;;;;;;4995700;28;19905;-59
2022/03/06 04:41:16;;;;;;;;;;;;;;;;;;5015092;28;20270;-59
2022/03/06 04:43:41;;;;;;;;;;;;;;;;;;5016277;28;19909;-59
2022/03/06 04:46:06;;;;;;;;;;;;;;;;;;4999115;28;20011;-59
2022/03/06 04:48:31;;;;;;;;;;;;;;;;;;5016576;28;19905;-58
2022/03/06 04:50:56;;;;;;;;;;;;;;;;;;5016176;28;19991;-60
2022/03/06 04:53:22;;;;;;;;;;;;;;;;;;5008088;28;20393;-58
2022/03/06 04:55:47;;;;;;;;;;;;;;;;;;5016138;28;20277;-59
2022/03/06 04:58:12;;;;;;;;;;;;;;;;;;5016094;28;19910;-58
2022/03/06 05:00:37;;;;;;;;;;;;;;;;;;5015732;28;19909;-59
2022/03/06 05:03:03;;;;;;;;;;;;;;;;;;5015974;28;19914;-59
2022/03/06 05:05:28;;;;;;;;;;;;;;;;;;5016213;28;19932;-59
2022/03/06 05:07:53;;;;;;;;;;;;;;;;;;5015866;28;19952;-58
2022/03/06 05:10:18;;;;;;;;;;;;;;;;;;5015856;28;19963;-58
2022/03/06 05:12:43;;;;;;;;;;;;;;;;;;5015975;28;19917;-58
2022/03/06 05:15:09;;;;;;;;;;;;;;;;;;4997801;28;19924;-59
2022/03/06 05:17:34;;;;;;;;;;;;;;;;;;5015771;28;20254;-58
2022/03/06 05:19:59;;;;;;;;;;;;;;;;;;5015641;28;19910;-59
2022/03/06 05:22:24;;;;;;;;;;;;;;;;;;5015796;28;19909;-59
2022/03/06 05:24:50;;;;;;;;;;;;;;;;;;5015568;28;19952;-59
2022/03/06 05:27:15;;;;;;;;;;;;;;;;;;5015512;28;20000;-59
2022/03/06 05:29:40;;;;;;;;;;;;;;;;;;5015195;28;19910;-59
2022/03/06 05:32:05;;;;;;;;;;;;;;;;;;5015986;28;19905;-59
2022/03/06 05:34:31;;;;;;;;;;;;;;;;;;5015972;28;19910;-59
2022/03/06 05:36:57;;;;;;;;;;;;;;;;;;5015086;28;19916;-59
2022/03/06 05:39:22;;;;;;;;;;;;;;;;;;5015079;28;20289;-59
2022/03/06 05:41:47;;;;;;;;;;;;;;;;;;5014996;28;20259;-59
2022/03/06 05:44:12;;;;;;;;;;;;;;;;;;5015168;28;20334;-59
2022/03/06 05:46:38;;;;;;;;;;;;;;;;;;5015454;28;19914;-59
2022/03/06 05:49:12;;;;;;;;;;;;;;;;;;5015403;28;19913;-59
2022/03/06 05:51:37;;;;;;;;;;;;;;;;;;5005364;28;19917;-59
2022/03/06 05:54:02;;;;;;;;;;;;;;;;;;4978234;28;19910;-59
2022/03/06 05:56:28;;;;;;;;;;;;;;;;;;4995355;28;20270;-59
2022/03/06 05:58:53;;;;;;;;;;;;;;;;;;4995064;28;19999;-59
2022/03/06 06:01:18;;;;;;;;;;;;;;;;;;4995222;28;20051;-59
2022/03/06 06:03:43;;;;;;;;;;;;;;;;;;4995021;28;20020;-59
2022/03/06 06:06:08;;;;;;;;;;;;;;;;;;4977929;28;19945;-59
2022/03/06 06:08:34;;;;;;;;;;;;;;;;;;4995398;28;19914;-59
2022/03/06 06:10:59;;;;;;;;;;;;;;;;;;4994976;28;19949;-59
2022/03/06 06:13:24;;;;;;;;;;;;;;;;;;4995170;28;19917;-59
2022/03/06 06:15:49;;;;;;;;;;;;;;;;;;4977797;28;19961;-59
2022/03/06 06:18:15;;;;;;;;;;;;;;;;;;4994944;28;19932;-59
2022/03/06 06:20:40;;;;;;;;;;;;;;;;;;4978551;28;20269;-59
2022/03/06 06:23:05;;;;;;;;;;;;;;;;;;4993218;28;20004;-59
2022/03/06 06:25:30;;;;;;;;;;;;;;;;;;4978515;28;19913;-59
2022/03/06 06:27:55;;;;;;;;;;;;;;;;;;4994589;28;19948;-59
2022/03/06 06:30:21;;;;;;;;;;;;;;;;;;4995288;28;19948;-61
2022/03/06 06:32:46;;;;;;;;;;;;;;;;;;4995216;28;19932;-59
2022/03/06 06:35:11;;;;;;;;;;;;;;;;;;4977632;28;19917;-59
2022/03/06 06:37:36;;;;;;;;;;;;;;;;;;4995166;28;19910;-63
2022/03/06 06:40:01;;;;;;;;;;;;;;;;;;4995129;28;19910;-59
2022/03/06 06:42:27;;;;;;;;;;;;;;;;;;4994790;28;19910;-60
2022/03/06 06:44:52;;;;;;;;;;;;;;;;;;4994807;28;19921;-60
2022/03/06 06:47:17;;;;;;;;;;;;;;;;;;4989829;28;19909;-59
2022/03/06 06:49:42;;;;;;;;;;;;;;;;;;4994680;28;19917;-62
2022/03/06 06:52:07;;;;;;;;;;;;;;;;;;4994988;28;19905;-59
2022/03/06 06:54:33;;;;;;;;;;;;;;;;;;4994707;28;19910;-60
2022/03/06 06:56:58;;;;;;;;;;;;;;;;;;4994753;28;19952;-59
2022/03/06 06:59:23;;;;;;;;;;;;;;;;;;4978011;28;19910;-59
2022/03/06 07:01:48;;;;;;;;;;;;;;;;;;4995201;28;19982;-59
2022/03/06 07:04:13;;;;;;;;;;;;;;;;;;4977700;28;19922;-59
2022/03/06 07:06:39;;;;;;;;;;;;;;;;;;4977158;28;19910;-60
2022/03/06 07:09:04;;;;;;;;;;;;;;;;;;4994932;28;19921;-59
2022/03/06 07:11:29;;;;;;;;;;;;;;;;;;4994866;28;19952;-59
2022/03/06 07:13:54;;;;;;;;;;;;;;;;;;4977054;28;19917;-59
2022/03/06 07:16:20;;;;;;;;;;;;;;;;;;4995174;28;19914;-59
2022/03/06 07:18:45;;;;;;;;;;;;;;;;;;4977188;28;19945;-59
2022/03/06 07:21:11;;;;;;;;;;;;;;;;;;4994189;28;19917;-59
2022/03/06 07:23:36;;;;;;;;;;;;;;;;;;4994408;28;19914;-59
2022/03/06 07:26:01;;;;;;;;;;;;;;;;;;4994172;28;19914;-61
2022/03/06 07:28:28;;;;;;;;;;;;;;;;;;4977125;28;19910;-59
2022/03/06 07:30:53;;;;;;;;;;;;;;;;;;4994031;28;19997;-59
2022/03/06 07:33:19;;;;;;;;;;;;;;;;;;4993780;28;20000;-60
2022/03/06 07:35:44;;;;;;;;;;;;;;;;;;4993998;28;20282;-59
2022/03/06 07:38:09;;;;;;;;;;;;;;;;;;4991865;28;19990;-58
2022/03/06 07:40:34;;;;;;;;;;;;;;;;;;4997690;28;19913;-59
2022/03/06 07:42:59;;;;;;;;;;;;;;;;;;4998137;28;19909;-59
2022/03/06 07:45:25;;;;;;;;;;;;;;;;;;4964854;28;20016;-59
2022/03/06 07:47:50;;;;;;;;;;;;;;;;;;5017165;28;19963;-59
2022/03/06 07:50:16;;;;;;;;;;;;;;;;;;4999644;28;19996;-59
2022/03/06 07:52:41;;;;;;;;;;;;;;;;;;5017104;28;19956;-59
2022/03/06 07:55:06;;;;;;;;;;;;;;;;;;5017591;28;19955;-59
2022/03/06 07:57:31;;;;;;;;;;;;;;;;;;5016971;28;19909;-59
2022/03/06 07:59:57;;;;;;;;;;;;;;;;;;5017258;28;20350;-59
2022/03/06 08:02:22;;;;;;;;;;;;;;;;;;5017198;28;20338;-59
2022/03/06 08:04:47;;;;;;;;;;;;;;;;;;5003048;28;19922;-59
2022/03/06 08:07:12;;;;;;;;;;;;;;;;;;4997246;28;19916;-59
2022/03/06 08:09:37;;;;;;;;;;;;;;;;;;4997442;28;19909;-59
2022/03/06 08:12:03;;;;;;;;;;;;;;;;;;4996294;28;19918;-59
2022/03/06 08:14:28;;;;;;;;;;;;;;;;;;4996923;28;19909;-59
2022/03/06 08:16:54;;;;;;;;;;;;;;;;;;4977964;28;20000;-59
2022/03/06 08:19:19;;;;;;;;;;;;;;;;;;4997454;28;19910;-59
2022/03/06 08:21:44;;;;;;;;;;;;;;;;;;4997605;28;19913;-59
2022/03/06 08:24:09;;;;;;;;;;;;;;;;;;4994835;28;19924;-57
2022/03/06 08:26:34;;;;;;;;;;;;;;;;;;4997394;28;19925;-57
2022/03/06 08:29:00;;;;;;;;;;;;;;;;;;4979565;28;20253;-58
2022/03/06 08:31:25;;;;;;;;;;;;;;;;;;4994054;28;19905;-59
2022/03/06 08:33:52;;;;;;;;;;;;;;;;;;4990635;28;19916;-59
2022/03/06 08:36:17;;;;;;;;;;;;;;;;;;4981003;28;19910;-59
2022/03/06 08:38:42;;;;;;;;;;;;;;;;;;5013841;28;19905;-59
2022/03/06 08:41:07;;;;;;;;;;;;;;;;;;4997015;28;19993;-58
2022/03/06 08:43:33;;;;;;;;;;;;;;;;;;4996508;28;20401;-57
2022/03/06 08:45:58;;;;;;;;;;;;;;;;;;4996535;28;20282;-57
2022/03/06 08:48:23;;;;;;;;;;;;;;;;;;4997672;28;20056;-58
2022/03/06 08:50:51;;;;;;;;;;;;;;;;;;4995909;28;19911;-58
2022/03/06 08:53:16;;;;;;;;;;;;;;;;;;5003337;28;19917;-58
2022/03/06 08:55:42;;;;;;;;;;;;;;;;;;5007868;28;19925;-59
2022/03/06 08:58:07;;;;;;;;;;;;;;;;;;4999364;28;19916;-59
2022/03/06 09:00:32;;;;;;;;;;;;;;;;;;5016050;28;19906;-60
2022/03/06 09:02:57;;;;;;;;;;;;;;;;;;4999557;28;20314;-58
2022/03/06 09:05:23;;;;;;;;;;;;;;;;;;4996981;28;19914;-58
2022/03/06 09:07:48;;;;;;;;;;;;;;;;;;4996121;28;19913;-59
2022/03/06 09:10:13;;;;;;;;;;;;;;;;;;4977185;28;19912;-58
2022/03/06 09:12:38;;;;;;;;;;;;;;;;;;4996332;28;19980;-59
2022/03/06 09:15:03;;;;;;;;;;;;;;;;;;4996362;28;20258;-57
2022/03/06 09:17:29;;;;;;;;;;;;;;;;;;4996755;28;19914;-58
2022/03/06 09:19:54;;;;;;;;;;;;;;;;;;4996149;28;19910;-57
2022/03/06 09:22:19;;;;;;;;;;;;;;;;;;4995788;28;19975;-59
2022/03/06 09:24:44;;;;;;;;;;;;;;;;;;4995973;28;19917;-60
2022/03/06 09:27:10;;;;;;;;;;;;;;;;;;4995685;28;19914;-59
2022/03/06 09:29:35;;;;;;;;;;;;;;;;;;4995913;28;19913;-59
2022/03/06 09:32:00;;;;;;;;;;;;;;;;;;4978687;28;19910;-59
2022/03/06 09:34:25;;;;;;;;;;;;;;;;;;4978930;28;19906;-59
2022/03/06 09:36:50;;;;;;;;;;;;;;;;;;4995526;28;19910;-59
2022/03/06 09:39:16;;;;;;;;;;;;;;;;;;4995470;28;19906;-59
2022/03/06 09:41:41;;;;;;;;;;;;;;;;;;4999637;28;20362;-59
2022/03/06 09:44:06;;;;;;;;;;;;;;;;;;4995552;28;19914;-58
2022/03/06 09:46:31;;;;;;;;;;;;;;;;;;4995628;28;19913;-58
2022/03/06 09:48:57;;;;;;;;;;;;;;;;;;4995848;28;19910;-58
2022/03/06 09:51:22;;;;;;;;;;;;;;;;;;4995273;28;20001;-58
2022/03/06 09:53:47;;;;;;;;;;;;;;;;;;4995507;28;19933;-59
2022/03/06 09:56:13;;;;;;;;;;;;;;;;;;4995389;28;20346;-58
2022/03/06 09:58:38;;;;;;;;;;;;;;;;;;4995097;28;19909;-59
2022/03/06 10:01:03;;;;;;;;;;;;;;;;;;4994987;28;20000;-59
2022/03/06 10:03:30;;;;;;;;;;;;;;;;;;5001320;28;19920;-59
2022/03/06 10:05:55;;;;;;;;;;;;;;;;;;4997830;28;19924;-58
2022/03/06 10:08:21;;;;;;;;;;;;;;;;;;4992565;28;19913;-59
2022/03/06 10:10:46;;;;;;;;;;;;;;;;;;4995311;28;20001;-58
2022/03/06 10:13:11;;;;;;;;;;;;;;;;;;4995438;28;19917;-58
2022/03/06 10:15:37;;;;;;;;;;;;;;;;;;4995377;28;19996;-58
2022/03/06 10:18:02;;;;;;;;;;;;;;;;;;4995195;28;19941;-58
2022/03/06 10:20:27;;;;;;;;;;;;;;;;;;4995353;28;19909;-59
2022/03/06 10:22:52;;;;;;;;;;;;;;;;;;4978071;28;19914;-58
2022/03/06 10:25:17;;;;;;;;;;;;;;;;;;4995567;28;19910;-59
2022/03/06 10:27:46;;;;;;;;;;;;;;;;;;4994637;28;19910;-57
2022/03/06 10:30:11;;;;;;;;;;;;;;;;;;4994935;28;20418;-57
2022/03/06 10:32:36;;;;;;;;;;;;;;;;;;4994913;28;19937;-59
2022/03/06 10:35:01;;;;;;;;;;;;;;;;;;4992262;28;19992;-59
2022/03/06 10:37:26;;;;;;;;;;;;;;;;;;4994720;28;20000;-60
2022/03/06 10:39:52;;;;;;;;;;;;;;;;;;4977053;28;19936;-59
2022/03/06 10:42:17;;;;;;;;;;;;;;;;;;4982445;28;19956;-59
2022/03/06 10:44:43;;;;;;;;;;;;;;;;;;5014542;28;19920;-59
2022/03/06 10:47:08;;;;;;;;;;;;;;;;;;5014279;28;19913;-59
2022/03/06 10:49:33;;;;;;;;;;;;;;;;;;5014592;28;19960;-59
2022/03/06 10:51:58;;;;;;;;;;;;;;;;;;5013375;28;19949;-59
2022/03/06 10:54:23;;;;;;;;;;;;;;;;;;5014568;28;19909;-59
2022/03/06 10:56:50;;;;;;;;;;;;;;;;;;5014222;28;20231;-57
2022/03/06 10:59:15;;;;;;;;;;;;;;;;;;5013955;28;20421;-57
2022/03/06 11:01:40;;;;;;;;;;;;;;;;;;5011836;28;19940;-58
2022/03/06 11:04:06;;;;;;;;;;;;;;;;;;4977061;28;19997;-58
2022/03/06 11:06:31;;;;;;;;;;;;;;;;;;4994770;28;19910;-58
2022/03/06 11:08:57;;;;;;;;;;;;;;;;;;4994474;28;19909;-57
2022/03/06 11:11:22;;;;;;;;;;;;;;;;;;4994479;28;19914;-57
2022/03/06 11:13:47;;;;;;;;;;;;;;;;;;4993715;28;19914;-57
2022/03/06 11:16:13;;;;;;;;;;;;;;;;;;4998952;28;19914;-58
2022/03/06 11:18:38;;;;;;;;;;;;;;;;;;4998333;28;19989;-59
2022/03/06 11:21:03;;;;;;;;;;;;;;;;;;4997838;28;19909;-58
2022/03/06 11:23:28;;;;;;;;;;;;;;;;;;5017875;28;19914;-58
2022/03/06 11:25:54;;;;;;;;;;;;;;;;;;5017775;28;20270;-59
2022/03/06 11:28:19;;;;;;;;;;;;;;;;;;5017782;28;19949;-58
2022/03/06 11:30:44;;;;;;;;;;;;;;;;;;5018356;28;19913;-58
2022/03/06 11:33:09;;;;;;;;;;;;;;;;;;5000082;28;19956;-59
2022/03/06 11:35:35;;;;;;;;;;;;;;;;;;5017307;28;20388;-59
2022/03/06 11:38:00;;;;;;;;;;;;;;;;;;5017639;28;20260;-58
2022/03/06 11:40:25;;;;;;;;;;;;;;;;;;5017784;28;19906;-58
2022/03/06 11:42:50;;;;;;;;;;;;;;;;;;4999806;28;19909;-58
2022/03/06 11:45:16;;;;;;;;;;;;;;;;;;4999961;28;19913;-58
2022/03/06 11:47:41;;;;;;;;;;;;;;;;;;5010111;28;20269;-58
2022/03/06 11:50:06;;;;;;;;;;;;;;;;;;4997798;28;20262;-58
2022/03/06 11:52:31;;;;;;;;;;;;;;;;;;4998352;28;19957;-58
2022/03/06 11:54:57;;;;;;;;;;;;;;;;;;4997719;28;19945;-59
2022/03/06 11:57:22;;;;;;;;;;;;;;;;;;4997862;28;19913;-59
2022/03/06 11:59:47;;;;;;;;;;;;;;;;;;4997773;28;19910;-59
2022/03/06 12:02:13;;;;;;;;;;;;;;;;;;4997237;28;19910;-58
2022/03/06 12:04:38;;;;;;;;;;;;;;;;;;4997150;28;20272;-59
2022/03/06 12:07:03;;;;;;;;;;;;;;;;;;4997493;28;19964;-60
2022/03/06 12:09:28;;;;;;;;;;;;;;;;;;4997710;28;19910;-59
2022/03/06 12:11:54;;;;;;;;;;;;;;;;;;4997056;28;19964;-58
2022/03/06 12:14:20;;;;;;;;;;;;;;;;;;4997545;28;19953;-59
2022/03/06 12:16:45;;;;;;;;;;;;;;;;;;4980721;28;19976;-58
2022/03/06 12:19:11;;;;;;;;;;;;;;;;;;4997348;28;19906;-58
2022/03/06 12:21:39;;;;;;;;;;;;;;;;;;4996978;28;19910;-58
2022/03/06 12:24:04;;;;;;;;;;;;;;;;;;4994958;28;19984;-58
2022/03/06 12:26:29;;;;;;;;;;;;;;;;;;4995979;28;20330;-58
2022/03/06 12:28:55;;;;;;;;;;;;;;;;;;4996816;28;19933;-58
2022/03/06 12:31:20;;;;;;;;;;;;;;;;;;4997401;28;20355;-58
2022/03/06 12:33:45;;;;;;;;;;;;;;;;;;4996995;28;19910;-58
2022/03/06 12:36:11;;;;;;;;;;;;;;;;;;4996871;28;20033;-58
2022/03/06 12:38:36;;;;;;;;;;;;;;;;;;4997240;28;20362;-58
2022/03/06 12:41:01;;;;;;;;;;;;;;;;;;4996804;28;19910;-58
2022/03/06 12:43:26;;;;;;;;;;;;;;;;;;4996932;28;19909;-58
2022/03/06 12:45:52;;;;;;;;;;;;;;;;;;4995584;28;19913;-59
2022/03/06 12:48:17;;;;;;;;;;;;;;;;;;4996705;28;19936;-58
2022/03/06 12:50:42;;;;;;;;;;;;;;;;;;4996917;28;19937;-59
2022/03/06 12:53:08;;;;;;;;;;;;;;;;;;4996356;28;20282;-59
2022/03/06 12:55:34;;;;;;;;;;;;;;;;;;4996572;28;19910;-59
2022/03/06 12:58:00;;;;;;;;;;;;;;;;;;4996498;28;19965;-59
2022/03/06 13:00:26;;;;;;;;;;;;;;;;;;4996405;28;19914;-59
2022/03/06 13:02:51;;;;;;;;;;;;;;;;;;4996079;28;19916;-59
2022/03/06 13:05:16;;;;;;;;;;;;;;;;;;4996142;28;19910;-59
2022/03/06 13:07:42;;;;;;;;;;;;;;;;;;5012874;28;19910;-58
2022/03/06 13:10:11;;;;;;;;;;;;;;;;;;4998701;28;19910;-58
2022/03/06 13:12:36;;;;;;;;;;;;;;;;;;4999033;28;19960;-59
2022/03/06 13:15:01;;;;;;;;;;;;;;;;;;5015382;28;19917;-59
2022/03/06 13:17:27;;;;;;;;;;;;;;;;;;5015680;28;20417;-59
2022/03/06 13:19:54;;;;;;;;;;;;;;;;;;5015659;28;19909;-60
2022/03/06 13:22:19;;;;;;;;;;;;;;;;;;4998274;28;19916;-58
2022/03/06 13:24:45;;;;;;;;;;;;;;;;;;5015523;28;20011;-58
2022/03/06 13:27:10;;;;;;;;;;;;;;;;;;4998197;28;19936;-58
2022/03/06 13:29:35;;;;;;;;;;;;;;;;;;5003177;28;19913;-58
2022/03/06 13:32:00;;;;;;;;;;;;;;;;;;4995861;28;19909;-57
2022/03/06 13:34:26;;;;;;;;;;;;;;;;;;4978403;28;20304;-57
2022/03/06 13:36:51;;;;;;;;;;;;;;;;;;4995760;28;20008;-57
2022/03/06 13:39:16;;;;;;;;;;;;;;;;;;4995470;28;20315;-58
2022/03/06 13:41:41;;;;;;;;;;;;;;;;;;4995349;28;20418;-58
2022/03/06 13:44:07;;;;;;;;;;;;;;;;;;4995721;28;20355;-57
2022/03/06 13:46:32;;;;;;;;;;;;;;;;;;4994420;28;19914;-57
2022/03/06 13:48:57;;;;;;;;;;;;;;;;;;4996083;28;19905;-57
2022/03/06 13:51:30;;;;;;;;;;;;;;;;;;4978852;28;19916;-57
2022/03/06 13:53:55;;;;;;;;;;;;;;;;;;4995725;28;20303;-57
2022/03/06 13:56:20;;;;;;;;;;;;;;;;;;4978475;28;19912;-58
2022/03/06 13:58:46;;;;;;;;;;;;;;;;;;4995053;28;19914;-58
2022/03/06 14:01:11;;;;;;;;;;;;;;;;;;4995845;28;19910;-57
2022/03/06 14:03:36;;;;;;;;;;;;;;;;;;4995504;28;20254;-58
2022/03/06 14:06:01;;;;;;;;;;;;;;;;;;4977555;28;20382;-58
2022/03/06 14:08:27;;;;;;;;;;;;;;;;;;4993710;28;19917;-58
2022/03/06 14:10:52;;;;;;;;;;;;;;;;;;4995374;28;19910;-58
2022/03/06 14:13:18;;;;;;;;;;;;;;;;;;5001202;28;19956;-57
2022/03/06 14:15:43;;;;;;;;;;;;;;;;;;5013583;28;19972;-58
2022/03/06 14:18:08;;;;;;;;;;;;;;;;;;5012466;28;19913;-57
2022/03/06 14:20:33;;;;;;;;;;;;;;;;;;5014668;28;20004;-57
2022/03/06 14:22:59;;;;;;;;;;;;;;;;;;5014321;28;19983;-57
2022/03/06 14:25:25;;;;;;;;;;;;;;;;;;5012365;28;20011;-57
2022/03/06 14:27:51;;;;;;;;;;;;;;;;;;5014148;28;19910;-57
2022/03/06 14:30:16;;;;;;;;;;;;;;;;;;5011893;28;19916;-58
2022/03/06 14:32:41;;;;;;;;;;;;;;;;;;5014192;28;19910;-58
2022/03/06 14:35:06;;;;;;;;;;;;;;;;;;5014196;28;20409;-57
2022/03/06 14:37:32;;;;;;;;;;;;;;;;;;4996845;28;19916;-59
2022/03/06 14:39:57;;;;;;;;;;;;;;;;;;5014465;28;20004;-58
2022/03/06 14:42:22;;;;;;;;;;;;;;;;;;5014714;28;19953;-58
2022/03/06 14:44:47;;;;;;;;;;;;;;;;;;4997350;28;19925;-58
2022/03/06 14:47:13;;;;;;;;;;;;;;;;;;5014094;28;19921;-58
2022/03/06 14:49:39;;;;;;;;;;;;;;;;;;5013382;28;20310;-58
2022/03/06 14:52:04;;;;;;;;;;;;;;;;;;5014338;28;19964;-58
2022/03/06 14:54:29;;;;;;;;;;;;;;;;;;5012012;28;20350;-58
2022/03/06 14:56:54;;;;;;;;;;;;;;;;;;5014520;28;19916;-57
2022/03/06 14:59:20;;;;;;;;;;;;;;;;;;4996697;28;19910;-58
2022/03/06 15:01:45;;;;;;;;;;;;;;;;;;5012077;28;19909;-62
2022/03/06 15:04:11;;;;;;;;;;;;;;;;;;5014166;28;19914;-58
2022/03/06 15:06:36;;;;;;;;;;;;;;;;;;5004766;28;19918;-58
2022/03/06 15:09:01;;;;;;;;;;;;;;;;;;4994641;28;19997;-58
2022/03/06 15:11:26;;;;;;;;;;;;;;;;;;4994704;28;19913;-58
2022/03/06 15:13:52;;;;;;;;;;;;;;;;;;5013843;28;19913;-57
2022/03/06 15:16:17;;;;;;;;;;;;;;;;;;5014707;28;19920;-58
2022/03/06 15:18:44;;;;;;;;;;;;;;;;;;5013762;28;19916;-58
2022/03/06 15:21:09;;;;;;;;;;;;;;;;;;5014075;28;20343;-58
2022/03/06 15:23:34;;;;;;;;;;;;;;;;;;5013906;28;20000;-58
2022/03/06 15:26:00;;;;;;;;;;;;;;;;;;5014260;28;19917;-58
2022/03/06 15:28:28;;;;;;;;;;;;;;;;;;5013987;28;19914;-58
2022/03/06 15:30:54;;;;;;;;;;;;;;;;;;5013692;28;20365;-58
2022/03/06 15:33:19;;;;;;;;;;;;;;;;;;5013946;28;19996;-58
2022/03/06 15:35:44;;;;;;;;;;;;;;;;;;5013982;28;19910;-58
2022/03/06 15:38:09;;;;;;;;;;;;;;;;;;4996704;28;19909;-57
2022/03/06 15:40:34;;;;;;;;;;;;;;;;;;5013591;28;19952;-58
2022/03/06 15:43:00;;;;;;;;;;;;;;;;;;5014051;28;20008;-58
2022/03/06 15:45:25;;;;;;;;;;;;;;;;;;5011418;28;20016;-58
2022/03/06 15:47:50;;;;;;;;;;;;;;;;;;5010660;28;20000;-58
2022/03/06 15:50:16;;;;;;;;;;;;;;;;;;5013465;28;20413;-58
2022/03/06 15:52:42;;;;;;;;;;;;;;;;;;5013715;28;20292;-58
2022/03/06 15:55:07;;;;;;;;;;;;;;;;;;4996734;28;19948;-57
2022/03/06 15:57:32;;;;;;;;;;;;;;;;;;5013972;28;19953;-57
2022/03/06 15:59:57;;;;;;;;;;;;;;;;;;5015341;28;19913;-58
2022/03/06 16:02:23;;;;;;;;;;;;;;;;;;5016992;28;19956;-58
2022/03/06 16:04:48;;;;;;;;;;;;;;;;;;5017073;28;19913;-58
2022/03/06 16:07:13;;;;;;;;;;;;;;;;;;5016855;28;19910;-58
2022/03/06 16:09:38;;;;;;;;;;;;;;;;;;5026122;28;19940;-58
2022/03/06 16:12:03;;;;;;;;;;;;;;;;;;5037082;28;19960;-57
2022/03/06 16:14:29;;;;;;;;;;;;;;;;;;5036330;28;20393;-58
2022/03/06 16:16:54;;;;;;;;;;;;;;;;;;5036730;28;19962;-58
2022/03/06 16:19:22;;;;;;;;;;;;;;;;;;5036366;28;19910;-58
2022/03/06 16:21:48;;;;;;;;;;;;;;;;;;5029814;28;19909;-57
2022/03/06 16:24:13;;;;;;;;;;;;;;;;;;5013986;28;19950;-58
2022/03/06 16:26:38;;;;;;;;;;;;;;;;;;5015840;28;19913;-58
2022/03/06 16:29:03;;;;;;;;;;;;;;;;;;5014348;28;19909;-60
2022/03/06 16:31:28;;;;;;;;;;;;;;;;;;5036419;28;19979;-59